Time;durP1;ratioP1;P1;durP2;ratioP2;P2;SDS_P1;SDS_P2;PMS_P1;PMS_P2;Temp;Humidity;BMP_temperature;BMP_pressure;BME280_temperature;BME280_humidity;BME280_pressure;Samples;Min_cycle;Max_cycle;Signal;HPM_P1;HPM_P2
2022/04/12 00:00:49;;;;;;;;;3.25;3.25;;;;;16.16;53.00;100505.41;2441775;28;45423;-86
2022/04/12 00:01:59;;;;;;;;;4.25;2.75;;;;;16.16;52.97;100513.34;2441632;28;46221;-85
2022/04/12 00:03:11;;;;;;;;;3.25;3.25;;;;;16.18;52.92;100510.59;2441832;28;45287;-87
2022/04/12 00:04:22;;;;;;;;;3.00;3.00;;;;;16.15;52.86;100508.97;2441803;28;46293;-87
2022/04/12 00:05:33;;;;;;;;;3.25;3.00;;;;;16.16;52.93;100508.06;2440888;28;45189;-87
2022/04/12 00:06:44;;;;;;;;;2.25;2.25;;;;;16.14;52.87;100501.13;2441092;28;45256;-87
2022/04/12 00:07:54;;;;;;;;;5.25;4.50;;;;;16.15;53.14;100502.84;2441763;28;45195;-87
2022/04/12 00:09:05;;;;;;;;;4.00;4.00;;;;;16.13;52.97;100504.72;2443941;28;45544;-86
2022/04/12 00:10:16;;;;;;;;;2.75;2.75;;;;;16.10;52.93;100492.50;2451365;27;45428;-86
2022/04/12 00:11:26;;;;;;;;;4.25;3.00;;;;;16.10;53.19;100500.47;2442058;28;47079;-86
2022/04/12 00:12:37;;;;;;;;;4.00;4.00;;;;;16.12;53.05;100508.34;2441440;28;44740;-86
2022/04/12 00:13:48;;;;;;;;;3.00;3.00;;;;;16.07;53.30;100498.88;2451251;27;47363;-84
2022/04/12 00:14:59;;;;;;;;;3.50;3.50;;;;;16.09;53.29;100498.75;2440857;28;45379;-83
2022/04/12 00:16:09;;;;;;;;;3.50;2.00;;;;;16.05;53.26;100491.97;2444221;27;45440;-84
2022/04/12 00:19:05;;;;;;;;;4.25;4.25;;;;;16.04;53.36;100507.00;2441572;28;45362;-84
2022/04/12 00:20:16;;;;;;;;;3.75;3.00;;;;;16.01;53.37;100503.63;2441782;28;45350;-85
2022/04/12 00:21:26;;;;;;;;;5.50;4.00;;;;;15.99;53.46;100509.03;2450394;28;45372;-84
2022/04/12 00:22:39;;;;;;;;;5.50;4.00;;;;;15.98;53.50;100508.19;2451448;27;45259;-83
2022/04/12 00:23:49;;;;;;;;;4.00;3.00;;;;;15.95;53.62;100508.34;2451239;27;45430;-83
2022/04/12 00:25:00;;;;;;;;;4.50;4.50;;;;;15.94;53.54;100511.97;2449306;27;45480;-83
2022/04/12 00:26:10;;;;;;;;;5.00;4.00;;;;;15.95;53.70;100516.31;2444510;28;46043;-83
2022/04/12 00:27:21;;;;;;;;;5.00;4.00;;;;;15.94;53.72;100516.41;2450959;27;45222;-84
2022/04/12 00:28:31;;;;;;;;;4.25;4.25;;;;;15.90;53.90;100518.38;2449495;28;46107;-84
2022/04/12 00:29:42;;;;;;;;;4.50;3.00;;;;;15.91;53.58;100528.03;2450878;28;45235;-83
2022/04/12 00:30:52;;;;;;;;;4.00;4.00;;;;;15.90;53.79;100523.66;2451209;27;46276;-83
2022/04/12 00:32:02;;;;;;;;;5.50;4.50;;;;;15.89;53.85;100521.97;2451318;27;45209;-83
2022/04/12 00:33:13;;;;;;;;;4.00;4.00;;;;;15.86;53.76;100527.47;2451084;27;46483;-83
2022/04/12 00:34:24;;;;;;;;;6.50;4.50;;;;;15.86;54.20;100535.41;2451479;27;44533;-83
2022/04/12 00:35:35;;;;;;;;;5.50;3.75;;;;;15.82;53.85;100528.59;2451036;28;46362;-83
2022/04/12 00:36:46;;;;;;;;;5.00;3.25;;;;;15.81;54.11;100527.72;2450521;28;44942;-83
2022/04/12 00:37:56;;;;;;;;;7.75;5.00;;;;;15.80;54.07;100525.19;2450577;28;45440;-83
2022/04/12 00:39:07;;;;;;;;;5.00;5.00;;;;;15.75;54.06;100512.22;2451451;27;44694;-83
2022/04/12 00:40:18;;;;;;;;;5.00;5.00;;;;;15.75;54.10;100514.84;2447910;27;45369;-84
2022/04/12 00:41:35;;;;;;;;;5.75;4.00;;;;;15.72;53.80;100518.53;2444960;28;45559;-83
2022/04/12 00:42:46;;;;;;;;;6.00;5.00;;;;;15.71;54.24;100506.22;2441060;28;45425;-83
2022/04/12 00:43:57;;;;;;;;;4.75;4.75;;;;;15.68;54.35;100505.56;2442423;28;45462;-84
2022/04/12 00:45:07;;;;;;;;;4.00;3.50;;;;;15.67;54.39;100506.50;2451146;27;46478;-84
2022/04/12 00:46:18;;;;;;;;;4.25;4.00;;;;;15.64;54.31;100502.22;2443131;27;45401;-85
2022/04/12 00:47:28;;;;;;;;;5.50;4.75;;;;;15.60;54.31;100498.06;2441261;28;45307;-85
2022/04/12 00:48:38;;;;;;;;;5.00;5.00;;;;;15.60;54.45;100508.66;2440475;28;45274;-85
2022/04/12 00:49:49;;;;;;;;;5.25;4.25;;;;;15.56;54.35;100499.16;2440853;28;45345;-84
2022/04/12 00:51:00;;;;;;;;;5.00;5.00;;;;;15.56;54.43;100501.81;2441356;28;45300;-84
2022/04/12 00:52:11;;;;;;;;;4.50;4.00;;;;;15.52;54.55;100491.41;2441229;28;45344;-88
2022/04/12 00:53:24;;;;;;;;;5.00;4.75;;;;;15.50;54.40;100493.31;2441595;28;45240;-87
2022/04/12 00:54:36;;;;;;;;;4.00;4.00;;;;;15.46;54.82;100482.97;2439947;28;45614;-88
2022/04/12 00:55:47;;;;;;;;;4.00;4.00;;;;;15.47;54.71;100489.97;2440648;28;45464;-88
2022/04/12 00:56:59;;;;;;;;;5.25;5.00;;;;;15.43;54.61;100491.09;2434836;28;49713;-88
2022/04/12 00:58:09;;;;;;;;;8.25;6.00;;;;;15.45;54.82;100499.78;2442764;28;45317;-88
2022/04/12 00:59:20;;;;;;;;;3.50;3.25;;;;;15.42;54.85;100495.53;2450354;28;46479;-89
2022/04/12 01:00:31;;;;;;;;;4.00;4.00;;;;;15.40;54.71;100502.72;2445280;27;45433;-88
2022/04/12 01:01:43;;;;;;;;;5.75;4.75;;;;;15.38;54.92;100501.94;2441107;28;46466;-87
2022/04/12 01:02:53;;;;;;;;;3.75;3.75;;;;;15.35;55.06;100495.03;2441454;28;45472;-89
2022/04/12 01:04:04;;;;;;;;;5.75;4.00;;;;;15.35;55.19;100499.47;2442251;28;45457;-90
2022/04/12 01:05:14;;;;;;;;;4.50;4.50;;;;;15.34;55.06;100492.44;2445805;28;45246;-89
2022/04/12 01:06:24;;;;;;;;;5.00;5.00;;;;;15.31;55.16;100493.47;2450606;27;47966;-85
2022/04/12 01:07:37;;;;;;;;;4.25;4.25;;;;;15.29;55.05;100492.72;2448972;27;45445;-86
2022/04/12 01:08:48;;;;;;;;;6.75;4.25;;;;;15.26;55.24;100491.09;2446247;28;46243;-87
2022/04/12 01:09:59;;;;;;;;;7.00;5.50;;;;;15.27;55.40;100491.97;2451062;27;45362;-87
2022/04/12 01:11:10;;;;;;;;;4.00;4.00;;;;;15.22;55.36;100480.78;2450374;27;46406;-86
2022/04/12 01:12:21;;;;;;;;;7.50;5.00;;;;;15.21;55.49;100479.09;2445605;27;44670;-86
2022/04/12 01:13:32;;;;;;;;;5.00;5.00;;;;;15.20;55.46;100480.88;2446070;28;46519;-86
2022/04/12 01:14:43;;;;;;;;;4.50;4.25;;;;;15.18;55.51;100473.03;2441669;28;44639;-86
2022/04/12 01:15:53;;;;;;;;;4.75;4.00;;;;;15.16;55.84;100463.47;2443972;27;45487;-86
2022/04/12 01:17:05;;;;;;;;;7.50;5.00;;;;;15.14;55.53;100470.63;2441232;28;45204;-87
2022/04/12 01:18:16;;;;;;;;;4.75;4.75;;;;;15.12;55.24;100464.56;2441044;28;46134;-86
2022/04/12 01:19:26;;;;;;;;;5.00;3.25;;;;;15.10;55.57;100469.09;2449145;28;45329;-86
2022/04/12 01:20:36;;;;;;;;;7.25;5.00;;;;;15.09;55.81;100475.34;2446353;27;46502;-86
2022/04/12 01:21:54;;;;;;;;;8.25;4.50;;;;;15.05;55.92;100475.50;2441805;28;45204;-85
2022/04/12 01:23:18;;;;;;;;;4.50;4.50;;;;;15.06;55.97;100479.00;2450469;27;46709;-84
2022/04/12 01:24:30;;;;;;;;;5.25;5.00;;;;;15.02;55.96;100478.31;2449222;28;45314;-83
2022/04/12 01:25:41;;;;;;;;;4.00;4.00;;;;;15.02;56.25;100482.75;2442815;28;47567;-83
2022/04/12 01:26:51;;;;;;;;;6.00;4.25;;;;;14.99;55.90;100483.78;2450501;28;45220;-84
2022/04/12 01:28:03;;;;;;;;;4.75;4.75;;;;;14.99;55.82;100489.06;2449877;28;45393;-83
2022/04/12 01:29:13;;;;;;;;;1.25;1.25;;;;;14.98;55.98;100486.53;2441085;28;45336;-83
2022/04/12 01:30:24;;;;;;;;;4.00;4.00;;;;;14.94;56.07;100489.31;2441395;28;45264;-83
2022/04/12 01:31:35;;;;;;;;;3.25;3.25;;;;;14.94;56.13;100491.97;2448488;28;46710;-83
2022/04/12 01:32:45;;;;;;;;;5.00;4.00;;;;;14.92;56.10;100482.41;2450292;28;45352;-83
2022/04/12 01:33:56;;;;;;;;;4.50;4.50;;;;;14.91;56.12;100478.06;2442173;28;45335;-83
2022/04/12 01:35:07;;;;;;;;;6.75;4.50;;;;;14.89;56.38;100472.84;2450303;28;45282;-83
2022/04/12 01:36:18;;;;;;;;;3.25;3.25;;;;;14.90;56.08;100481.66;2447881;28;44742;-83
2022/04/12 01:37:28;;;;;;;;;6.75;3.25;;;;;14.88;56.30;100473.81;2442733;28;45311;-85
2022/04/12 01:38:39;;;;;;;;;4.25;4.00;;;;;14.87;56.47;100473.88;2443017;28;45275;-84
2022/04/12 01:39:49;;;;;;;;;3.75;3.75;;;;;14.84;56.43;100469.59;2444577;28;46113;-84
2022/04/12 01:40:59;;;;;;;;;5.00;5.00;;;;;14.83;56.58;100478.47;2452813;27;44698;-86
2022/04/12 01:42:10;;;;;;;;;4.50;4.25;;;;;14.83;56.15;100478.47;2442746;27;45334;-85
2022/04/12 01:43:21;;;;;;;;;4.25;4.25;;;;;14.82;56.55;100479.38;2447822;28;45242;-84
2022/04/12 01:44:31;;;;;;;;;5.50;4.50;;;;;14.80;56.56;100484.78;2451993;28;45280;-85
2022/04/12 01:45:41;;;;;;;;;6.00;4.00;;;;;14.79;56.29;100491.00;2444952;28;44744;-85
2022/04/12 01:46:52;;;;;;;;;7.75;4.50;;;;;14.79;56.33;100483.06;2447601;28;45323;-85
2022/04/12 01:48:02;;;;;;;;;7.25;5.00;;;;;14.78;56.73;100497.25;2448034;28;45161;-86
2022/04/12 01:49:13;;;;;;;;;4.75;4.25;;;;;14.77;56.56;100494.66;2450334;28;46424;-86
2022/04/12 01:50:23;;;;;;;;;5.25;5.00;;;;;14.76;56.71;100492.97;2442795;28;44666;-87
2022/04/12 01:51:33;;;;;;;;;8.00;5.25;;;;;14.76;56.71;100499.13;2442567;28;46492;-87
2022/04/12 01:52:44;;;;;;;;;5.00;5.00;;;;;14.72;56.54;100492.25;2443974;28;45240;-86
2022/04/12 01:53:54;;;;;;;;;5.00;4.75;;;;;14.71;56.44;100490.56;2435169;28;46917;-87
2022/04/12 01:55:05;;;;;;;;;5.75;5.00;;;;;14.71;56.77;100490.56;2452186;28;45246;-85
2022/04/12 01:56:15;;;;;;;;;6.00;4.25;;;;;14.70;56.53;100500.31;2452284;28;45367;-85
2022/04/12 01:57:26;;;;;;;;;7.00;5.00;;;;;14.69;56.90;100495.09;2452259;27;44779;-84
2022/04/12 01:58:36;;;;;;;;;5.50;5.50;;;;;14.67;56.93;100494.34;2447293;27;45235;-84
2022/04/12 01:59:46;;;;;;;;;3.25;3.25;;;;;14.65;56.66;100497.03;2450956;27;45394;-84
2022/04/12 02:00:57;;;;;;;;;4.00;4.00;;;;;14.67;56.70;100494.34;2448151;27;46159;-87
2022/04/12 02:02:07;;;;;;;;;6.00;4.50;;;;;14.63;56.93;100494.50;2451758;28;45276;-86
2022/04/12 02:03:17;;;;;;;;;4.75;4.75;;;;;14.61;56.68;100484.94;2449783;28;45426;-86
2022/04/12 02:04:28;;;;;;;;;4.00;4.00;;;;;14.61;56.74;100491.09;2442790;28;45316;-86
2022/04/12 02:05:39;;;;;;;;;3.50;3.25;;;;;14.59;57.01;100487.66;2442763;28;46126;-86
2022/04/12 02:06:49;;;;;;;;;6.00;5.75;;;;;14.57;57.09;100483.41;2447428;27;45365;-87
2022/04/12 02:08:00;;;;;;;;;4.75;4.75;;;;;14.58;57.16;100488.59;2442640;28;46987;-86
2022/04/12 02:09:10;;;;;;;;;5.75;4.00;;;;;14.56;57.13;100487.84;2452071;28;45249;-87
2022/04/12 02:10:22;;;;;;;;;7.25;5.00;;;;;14.54;57.21;100475.63;2451018;27;46194;-86
2022/04/12 02:11:32;;;;;;;;;4.00;4.00;;;;;14.54;57.43;100484.41;2448389;27;45191;-87
2022/04/12 02:12:42;;;;;;;;;7.50;4.75;;;;;14.55;57.20;100485.25;2442230;28;45488;-88
2022/04/12 02:13:53;;;;;;;;;6.00;5.00;;;;;14.52;57.00;100481.84;2448570;28;44945;-87
2022/04/12 02:15:04;;;;;;;;;6.25;4.50;;;;;14.52;56.80;100488.91;2445098;28;46855;-87
2022/04/12 02:16:15;;;;;;;;;4.00;4.00;;;;;14.51;57.12;100484.56;2446065;27;45232;-88
2022/04/12 02:17:25;;;;;;;;;5.00;3.75;;;;;14.50;57.33;100486.34;2442608;28;45398;-87
2022/04/12 02:18:35;;;;;;;;;3.75;3.00;;;;;14.50;57.22;100482.84;2451777;28;45405;-86
2022/04/12 02:19:46;;;;;;;;;4.25;3.00;;;;;14.51;57.25;100495.16;2451213;27;46384;-85
2022/04/12 02:20:56;;;;;;;;;5.00;5.00;;;;;14.48;57.46;100482.09;2451776;27;45301;-85
2022/04/12 02:22:07;;;;;;;;;6.00;5.00;;;;;14.47;57.65;100475.13;2447860;28;46287;-85
2022/04/12 02:23:17;;;;;;;;;5.00;3.50;;;;;14.47;57.37;100472.47;2451599;27;45308;-85
2022/04/12 02:24:28;;;;;;;;;5.00;5.00;;;;;14.45;57.47;100469.88;2451739;27;46398;-85
2022/04/12 02:25:38;;;;;;;;;4.25;4.25;;;;;14.45;57.52;100467.25;2446720;27;46607;-85
2022/04/12 02:26:49;;;;;;;;;6.00;5.00;;;;;14.46;57.77;100470.75;2448821;28;47341;-87
2022/04/12 02:27:59;;;;;;;;;5.00;5.00;;;;;14.45;57.66;100479.59;2451518;28;45377;-87
2022/04/12 02:29:12;;;;;;;;;4.00;4.00;;;;;14.44;57.54;100477.91;2452112;27;46073;-87
2022/04/12 02:30:22;;;;;;;;;1.00;1.00;;;;;14.45;57.62;100476.97;2444654;27;44664;-87
2022/04/12 02:31:33;;;;;;;;;5.00;4.00;;;;;14.40;57.73;100478.06;2442368;28;46484;-87
2022/04/12 02:32:43;;;;;;;;;8.50;7.00;;;;;14.40;57.63;100471.91;2442625;28;44604;-87
2022/04/12 02:33:54;;;;;;;;;4.00;4.00;;;;;14.38;57.62;100466.72;2442297;28;45307;-87
2022/04/12 02:35:05;;;;;;;;;10.25;6.25;;;;;14.38;57.85;100469.38;2442415;28;45161;-86
2022/04/12 02:36:15;;;;;;;;;6.50;6.00;;;;;14.40;57.78;100475.41;2442487;28;46881;-86
2022/04/12 02:37:26;;;;;;;;;6.00;5.25;;;;;14.39;57.67;100479.03;2447786;28;44723;-87
2022/04/12 02:38:37;;;;;;;;;8.50;6.00;;;;;14.36;57.86;100476.53;2444298;28;46185;-88
2022/04/12 02:39:47;;;;;;;;;7.00;5.25;;;;;14.37;57.96;100482.69;2444430;28;45319;-90
2022/04/12 02:40:57;;;;;;;;;8.75;6.75;;;;;14.36;57.68;100486.25;2450540;28;46271;-89
2022/04/12 02:42:08;;;;;;;;;7.25;5.25;;;;;14.36;57.84;100488.91;2450104;28;45253;-90
2022/04/12 02:43:18;;;;;;;;;5.50;5.50;;;;;14.36;57.80;100481.81;2451437;28;45350;-89
2022/04/12 02:44:28;;;;;;;;;4.00;4.00;;;;;14.35;57.52;100480.09;2448167;27;45391;-89
2022/04/12 02:45:39;;;;;;;;;8.50;7.25;;;;;14.35;57.59;100474.81;2451061;27;46275;-87
2022/04/12 02:46:49;;;;;;;;;5.50;5.50;;;;;14.35;57.58;100485.38;2442371;28;44728;-88
2022/04/12 02:47:59;;;;;;;;;8.75;6.00;;;;;14.35;57.83;100484.53;2441997;28;46468;-86
2022/04/12 02:49:10;;;;;;;;;8.50;6.25;;;;;14.35;57.71;100485.38;2443729;28;45259;-85
2022/04/12 02:50:22;;;;;;;;;9.75;5.75;;;;;14.33;57.79;100483.75;2451380;28;46375;-85
2022/04/12 02:51:33;;;;;;;;;8.25;5.50;;;;;14.31;57.85;100477.72;2444036;27;45570;-84
2022/04/12 02:52:43;;;;;;;;;5.00;4.75;;;;;14.32;57.73;100482.06;2451014;28;45247;-85
2022/04/12 02:53:53;;;;;;;;;7.50;6.00;;;;;14.29;57.81;100473.38;2448112;27;45300;-85
2022/04/12 02:55:05;;;;;;;;;5.00;5.00;;;;;14.28;57.84;100471.66;2442313;28;45208;-85
2022/04/12 02:56:15;;;;;;;;;3.25;3.25;;;;;14.31;57.97;100483.84;2452157;27;45218;-85
2022/04/12 02:57:26;;;;;;;;;6.00;5.00;;;;;14.28;57.94;100474.28;2451563;27;45484;-86
2022/04/12 02:58:36;;;;;;;;;7.25;7.25;;;;;14.30;58.16;100476.84;2450518;27;45184;-88
2022/04/12 02:59:46;;;;;;;;;8.75;6.00;;;;;14.27;58.26;100472.56;2452064;27;46316;-88
2022/04/12 03:00:57;;;;;;;;;4.75;3.75;;;;;14.28;58.26;100474.28;2451220;28;44750;-87
2022/04/12 03:02:07;;;;;;;;;3.50;3.50;;;;;14.29;58.53;100480.44;2440052;28;47087;-94
2022/04/12 03:03:17;;;;;;;;;6.25;4.00;;;;;14.29;58.26;100478.66;2442018;28;45331;-93
2022/04/12 03:04:28;;;;;;;;;7.75;6.00;;;;;14.28;58.13;100473.44;2444023;28;47256;-92
2022/04/12 03:05:38;;;;;;;;;5.50;4.50;;;;;14.28;58.22;100476.06;2450851;28;45390;-85
2022/04/12 03:06:48;;;;;;;;;5.50;5.25;;;;;14.27;58.17;100471.75;2448567;28;46819;-90
2022/04/12 03:07:59;;;;;;;;;4.00;4.00;;;;;14.24;58.15;100472.75;2436635;28;45335;-89
2022/04/12 03:09:10;;;;;;;;;4.75;4.75;;;;;14.24;58.24;100471.91;2444021;28;47790;-88
2022/04/12 03:10:20;;;;;;;;;5.00;5.00;;;;;14.25;58.48;100465.66;2451526;27;45260;-88
2022/04/12 03:11:30;;;;;;;;;5.50;5.00;;;;;14.23;57.97;100460.47;2442128;28;45266;-84
2022/04/12 03:12:41;;;;;;;;;7.00;7.00;;;;;14.22;58.15;100457.91;2440860;28;44758;-84
2022/04/12 03:13:52;;;;;;;;;5.75;5.50;;;;;14.24;58.35;100450.75;2447733;28;45398;-88
2022/04/12 03:15:03;;;;;;;;;5.00;5.00;;;;;14.23;58.18;100446.38;2452038;28;45313;-88
2022/04/12 03:16:13;;;;;;;;;4.25;4.25;;;;;14.22;58.16;100445.56;2452780;27;45389;-86
2022/04/12 03:17:23;;;;;;;;;6.00;5.00;;;;;14.22;58.28;100448.19;2453192;27;44573;-86
2022/04/12 03:18:34;;;;;;;;;4.50;4.50;;;;;14.20;58.07;100447.41;2441975;28;45199;-87
2022/04/12 03:19:44;;;;;;;;;4.00;4.00;;;;;14.21;58.33;100450.91;2442319;28;45163;-88
2022/04/12 03:20:54;;;;;;;;;5.25;5.25;;;;;14.20;58.43;100455.34;2446094;28;47363;-86
2022/04/12 03:22:05;;;;;;;;;4.25;4.25;;;;;14.20;58.41;100447.41;2434411;28;45307;-86
2022/04/12 03:23:15;;;;;;;;;4.50;4.50;;;;;14.17;57.88;100445.78;2434108;28;47485;-85
2022/04/12 03:24:26;;;;;;;;;4.00;4.00;;;;;14.20;58.14;100443.94;2441619;28;45397;-84
2022/04/12 03:25:36;;;;;;;;;1.25;1.25;;;;;14.17;58.19;100444.94;2442816;28;45569;-84
2022/04/12 03:26:46;;;;;;;;;7.25;5.00;;;;;14.17;57.94;100448.41;2448769;27;44672;-84
2022/04/12 03:27:57;;;;;;;;;4.00;4.00;;;;;14.20;58.00;100457.97;2451209;27;45488;-86
2022/04/12 03:29:07;;;;;;;;;4.75;4.50;;;;;14.17;57.80;100448.41;2445063;27;45332;-85
2022/04/12 03:30:17;;;;;;;;;4.25;3.50;;;;;14.18;57.97;100450.13;2442072;28;45413;-85
2022/04/12 03:31:28;;;;;;;;;5.25;5.00;;;;;14.18;57.88;100447.50;2441950;28;44746;-85
2022/04/12 03:32:38;;;;;;;;;4.25;4.25;;;;;14.21;57.63;100448.25;2441800;28;46478;-85
2022/04/12 03:33:49;;;;;;;;;4.25;4.00;;;;;14.21;57.56;100454.41;2442049;28;45211;-90
2022/04/12 03:34:59;;;;;;;;;3.75;3.00;;;;;14.22;57.62;100450.84;2441840;28;46129;-88
2022/04/12 03:36:09;;;;;;;;;4.50;3.50;;;;;14.22;57.81;100447.34;2441168;28;45188;-87
2022/04/12 03:37:20;;;;;;;;;4.75;4.75;;;;;14.23;57.93;100446.38;2441638;28;45354;-87
2022/04/12 03:38:30;;;;;;;;;7.25;4.00;;;;;14.24;57.48;100445.47;2448126;28;44767;-88
2022/04/12 03:39:42;;;;;;;;;3.25;3.25;;;;;14.24;57.66;100453.41;2447742;28;46399;-87
2022/04/12 03:40:53;;;;;;;;;5.50;5.00;;;;;14.24;57.57;100456.03;2442304;28;45257;-90
2022/04/12 03:42:04;;;;;;;;;6.50;5.00;;;;;14.27;57.43;100466.47;2457191;27;47034;-90
2022/04/12 03:43:15;;;;;;;;;5.00;4.25;;;;;14.25;57.20;100468.31;2441584;28;44628;-89
2022/04/12 03:44:25;;;;;;;;;4.75;3.75;;;;;14.28;57.73;100476.06;2449538;28;46142;-89
2022/04/12 03:45:35;;;;;;;;;3.00;3.00;;;;;14.28;57.59;100469.00;2449856;27;44795;-84
2022/04/12 03:46:46;;;;;;;;;5.25;4.00;;;;;14.30;57.80;100474.19;2448676;28;46741;-85
2022/04/12 03:47:56;;;;;;;;;5.75;4.75;;;;;14.31;57.91;100467.13;2451760;27;44743;-85
2022/04/12 03:49:07;;;;;;;;;7.50;5.25;;;;;14.32;57.78;100472.31;2444434;27;45460;-85
2022/04/12 03:50:17;;;;;;;;;4.75;4.25;;;;;14.31;57.83;100467.13;2443375;28;45410;-84
2022/04/12 03:51:28;;;;;;;;;3.75;3.75;;;;;14.33;57.58;100466.13;2451586;27;46588;-83
2022/04/12 03:52:38;;;;;;;;;5.25;4.00;;;;;14.32;57.57;100461.75;2448778;27;44671;-82
2022/04/12 03:53:49;;;;;;;;;3.25;3.25;;;;;14.33;57.20;100462.59;2448238;27;45427;-82
2022/04/12 03:55:00;;;;;;;;;4.00;4.00;;;;;14.33;57.07;100463.47;2446165;28;45306;-83
2022/04/12 03:56:10;;;;;;;;;5.00;3.50;;;;;14.33;57.01;100460.81;2442359;27;46494;-83
2022/04/12 03:57:21;;;;;;;;;5.50;4.75;;;;;14.36;57.03;100467.75;2441461;28;45199;-83
2022/04/12 03:58:31;;;;;;;;;3.75;3.75;;;;;14.37;57.15;100472.94;2441501;28;45279;-83
2022/04/12 03:59:42;;;;;;;;;5.00;4.00;;;;;14.35;57.13;100466.88;2441099;28;45207;-82
2022/04/12 04:00:52;;;;;;;;;7.50;4.50;;;;;14.37;57.17;100467.66;2440428;28;45532;-82
2022/04/12 04:02:03;;;;;;;;;6.50;3.50;;;;;14.36;56.96;100462.44;2445196;28;45432;-82
2022/04/12 04:03:13;;;;;;;;;6.00;3.00;;;;;14.38;57.00;100464.09;2450683;28;47529;-82
2022/04/12 04:04:24;;;;;;;;;5.00;4.00;;;;;14.39;57.24;100471.09;2449914;28;45209;-82
2022/04/12 04:05:34;;;;;;;;;6.00;4.00;;;;;14.38;56.72;100457.94;2446502;28;46445;-83
2022/04/12 04:06:44;;;;;;;;;4.50;3.50;;;;;14.38;56.73;100452.66;2451520;27;44772;-86
2022/04/12 04:07:55;;;;;;;;;5.50;4.00;;;;;14.39;56.77;100457.88;2450500;28;47406;-85
2022/04/12 04:09:05;;;;;;;;;4.25;4.25;;;;;14.39;56.70;100447.28;2450313;28;45479;-84
2022/04/12 04:10:16;;;;;;;;;2.25;2.00;;;;;14.39;56.52;100455.22;2442058;28;46173;-84
2022/04/12 04:11:27;;;;;;;;;4.50;4.00;;;;;14.40;56.27;100456.91;2445405;28;45342;-85
2022/04/12 04:12:37;;;;;;;;;4.00;3.00;;;;;14.38;56.72;100452.66;2441613;28;46387;-83
2022/04/12 04:13:47;;;;;;;;;5.25;3.00;;;;;14.39;56.61;100452.59;2446780;28;45330;-83
2022/04/12 04:14:58;;;;;;;;;1.75;1.75;;;;;14.37;56.63;100448.31;2440948;28;48161;-83
2022/04/12 04:16:08;;;;;;;;;3.50;3.50;;;;;14.38;56.63;100450.00;2449010;27;45229;-83
2022/04/12 04:17:19;;;;;;;;;4.00;3.00;;;;;14.37;56.65;100454.44;2448896;27;47579;-83
2022/04/12 04:18:29;;;;;;;;;4.50;3.75;;;;;14.36;56.64;100455.38;2443015;28;45315;-83
2022/04/12 04:19:39;;;;;;;;;4.00;2.75;;;;;14.36;56.37;100442.16;2451407;27;46224;-84
2022/04/12 04:20:50;;;;;;;;;6.75;4.25;;;;;14.37;56.18;100459.72;2447245;27;45322;-84
2022/04/12 04:22:01;;;;;;;;;3.00;3.00;;;;;14.36;56.31;100455.38;2433737;28;47131;-83
2022/04/12 04:23:11;;;;;;;;;3.00;3.00;;;;;14.36;56.74;100463.31;2441199;28;45193;-84
2022/04/12 04:24:23;;;;;;;;;4.00;4.00;;;;;14.34;56.47;100465.19;2441431;28;46252;-84
2022/04/12 04:25:33;;;;;;;;;7.00;4.75;;;;;14.34;56.45;100456.41;2441690;28;45374;-84
2022/04/12 04:26:44;;;;;;;;;1.00;0.00;;;;;14.34;56.31;100462.53;2440746;28;48231;-87
2022/04/12 04:27:55;;;;;;;;;4.00;3.00;;;;;14.34;56.28;100461.69;2440822;28;45354;-85
2022/04/12 04:29:06;;;;;;;;;4.00;3.00;;;;;14.32;56.26;100468.84;2440170;28;47022;-84
2022/04/12 04:30:18;;;;;;;;;3.50;3.50;;;;;14.31;56.33;100467.13;2441209;28;45264;-84
2022/04/12 04:31:28;;;;;;;;;4.25;3.75;;;;;14.32;55.91;100466.22;2450259;28;47543;-84
2022/04/12 04:32:39;;;;;;;;;4.00;3.00;;;;;14.31;56.24;100472.41;2453268;27;45386;-84
2022/04/12 04:33:50;;;;;;;;;5.75;3.75;;;;;14.29;55.91;100472.50;2457616;27;46367;-84
2022/04/12 04:35:00;;;;;;;;;6.50;5.00;;;;;14.31;56.09;100475.91;2451310;27;45234;-88
2022/04/12 04:36:11;;;;;;;;;4.00;3.00;;;;;14.29;56.11;100469.88;2460214;27;47152;-89
2022/04/12 04:37:21;;;;;;;;;5.00;3.75;;;;;14.28;56.19;100470.78;2444256;28;45378;-90
2022/04/12 04:38:31;;;;;;;;;4.50;3.00;;;;;14.26;56.04;100478.81;2435886;28;46357;-90
2022/04/12 04:39:42;;;;;;;;;3.00;3.00;;;;;14.25;55.95;100468.31;2450686;28;45260;-87
2022/04/12 04:40:52;;;;;;;;;3.00;2.75;;;;;14.24;56.42;100464.81;2442672;28;45536;-85
2022/04/12 04:42:05;;;;;;;;;3.75;3.75;;;;;14.22;56.06;100465.84;2442633;28;45134;-86
2022/04/12 04:43:16;;;;;;;;;5.00;3.75;;;;;14.21;55.64;100464.13;2451186;27;45404;-86
2022/04/12 04:44:26;;;;;;;;;5.00;4.00;;;;;14.18;55.63;100468.63;2445373;27;45568;-85
2022/04/12 04:45:37;;;;;;;;;5.00;3.00;;;;;14.19;55.79;100464.22;2443494;28;47123;-93
2022/04/12 04:46:47;;;;;;;;;4.25;4.25;;;;;14.17;55.54;100469.56;2451797;27;45291;-92
2022/04/12 04:48:00;;;;;;;;;3.00;2.75;;;;;14.15;55.70;100474.06;2448054;28;47616;-91
2022/04/12 04:49:10;;;;;;;;;3.75;3.00;;;;;14.12;56.03;100471.63;2441255;28;45484;-90
2022/04/12 04:50:23;;;;;;;;;3.75;3.00;;;;;14.10;55.64;100481.38;2441233;28;45209;-90
2022/04/12 04:51:35;;;;;;;;;4.75;3.00;;;;;14.08;55.64;100483.25;2440804;28;45197;-89
2022/04/12 04:52:46;;;;;;;;;7.50;4.75;;;;;14.06;55.80;100486.00;2441655;28;46323;-89
2022/04/12 04:53:59;;;;;;;;;3.00;3.00;;;;;14.04;55.80;100487.88;2441807;27;44716;-89
2022/04/12 04:55:10;;;;;;;;;4.25;4.25;;;;;14.03;55.93;100498.50;2443947;28;47724;-87
2022/04/12 04:56:20;;;;;;;;;5.25;5.25;;;;;14.01;55.71;100489.81;2450024;28;45232;-88
2022/04/12 04:57:30;;;;;;;;;4.00;4.00;;;;;13.99;55.79;100495.19;2440222;28;47433;-89
2022/04/12 04:58:41;;;;;;;;;7.75;3.00;;;;;13.98;55.72;100496.09;2440689;28;45286;-89
2022/04/12 04:59:51;;;;;;;;;4.00;4.00;;;;;13.95;55.80;100493.63;2440511;28;48268;-88
2022/04/12 05:01:02;;;;;;;;;5.00;5.00;;;;;13.94;56.04;100484.84;2441023;28;45277;-87
2022/04/12 05:02:12;;;;;;;;;5.50;4.25;;;;;13.93;55.96;100485.75;2441236;28;45206;-87
2022/04/12 05:03:22;;;;;;;;;4.25;4.25;;;;;13.91;56.09;100492.91;2440097;28;44716;-88
2022/04/12 05:04:33;;;;;;;;;5.50;4.25;;;;;13.90;56.14;100491.19;2447581;28;48153;-87
2022/04/12 05:05:43;;;;;;;;;7.25;4.25;;;;;13.89;56.21;100499.22;2449817;28;45259;-87
2022/04/12 05:06:54;;;;;;;;;4.00;4.00;;;;;13.88;56.20;100492.25;2441433;28;45338;-90
2022/04/12 05:08:04;;;;;;;;;4.00;4.00;;;;;13.85;55.98;100493.25;2444527;27;44681;-90
2022/04/12 05:09:15;;;;;;;;;4.00;4.00;;;;;13.83;56.18;100495.94;2440899;28;45405;-90
2022/04/12 05:10:29;;;;;;;;;4.75;4.00;;;;;13.84;55.94;100499.44;2442035;28;45359;-92
2022/04/12 05:11:40;;;;;;;;;4.00;4.00;;;;;13.80;56.00;100500.53;2444111;27;47173;-91
2022/04/12 05:12:50;;;;;;;;;5.50;4.75;;;;;13.79;56.23;100499.69;2455804;27;45254;-92
2022/04/12 05:14:00;;;;;;;;;5.00;4.00;;;;;13.78;56.09;100499.78;2450332;28;47210;-94
2022/04/12 05:15:11;;;;;;;;;4.75;4.00;;;;;13.78;55.81;100507.69;2443194;28;45269;-94
2022/04/12 05:16:21;;;;;;;;;4.50;4.00;;;;;13.75;56.16;100508.72;2450823;28;45550;-92
2022/04/12 05:17:31;;;;;;;;;3.75;3.75;;;;;13.73;56.05;100511.41;2442305;27;45348;-94
2022/04/12 05:18:42;;;;;;;;;4.75;4.75;;;;;13.72;56.28;100509.72;2446007;28;45556;-92
2022/04/12 05:19:53;;;;;;;;;6.50;3.75;;;;;13.72;56.17;100519.41;2449606;27;45241;-91
2022/04/12 05:21:03;;;;;;;;;5.00;4.25;;;;;13.70;56.68;100522.13;2440507;28;47184;-92
2022/04/12 05:22:14;;;;;;;;;5.75;4.50;;;;;13.71;56.35;100528.25;2443140;28;45212;-92
2022/04/12 05:23:24;;;;;;;;;4.00;4.00;;;;;13.69;56.50;100528.34;2441999;28;48091;-91
2022/04/12 05:24:34;;;;;;;;;4.75;3.75;;;;;13.69;56.67;100523.06;2433919;28;44757;-89
2022/04/12 05:25:45;;;;;;;;;4.50;3.50;;;;;13.65;56.40;100521.50;2436501;28;47294;-89
2022/04/12 05:26:55;;;;;;;;;4.00;4.00;;;;;13.64;56.73;100514.50;2433254;28;44702;-89
2022/04/12 05:28:06;;;;;;;;;3.50;3.50;;;;;13.62;56.78;100513.75;2440325;28;45570;-89
2022/04/12 05:29:16;;;;;;;;;6.00;4.00;;;;;13.62;56.66;100519.03;2440351;28;45402;-89
2022/04/12 05:30:27;;;;;;;;;3.50;3.50;;;;;13.62;56.65;100526.94;2442590;28;46491;-90